Terminal Aerodrome Forecast
Issued by NWS

Home | Current Version | Previous Version | Text Only | Print | Product List | Glossary On
Versions: 1 2 3 4 5 6 7 8 9 10 11 12 13 14 15 16
000
FTUS46 KLOX 181700
TAFPRB
TAF
KPRB 181731Z 1818/1918 18005KT P6SM BKN023
     FM182100 20015KT P6SM SKC
     FM190400 20008KT P6SM SKC
     FM190700 30007KT P6SM OVC025
     FM190900 VRB03KT P6SM OVC020=

USA.gov is the U.S. government's official web portal to all federal, state and local government web resources and services.